Notre-Dame-Du-Lac, Canada
Current Conditions -  °F | °C
As of 2:53 PM on Monday 26 Jan 2015 (Local Time) from KFVE Reporting Station
Clear Clear  
Wind Chill: -7°   Ceiling: Unl
Heat Index:   Visibility: 10mi
Dew Point: -11°   Wind: 6mph
Humidity: 50%   Direction: 260°W
Pressure: 30.14"   Gusts: NA
Location:  47.6°N, 68.8°W
Report Text: KFVE 261953Z AUTO 26005KT 10SM CLR M16/M24 A3014 RMK AO2 SLP231 T11561239
Loading
Personal Weather Stations






























Interactive Weather Map New forecast layout! Learn more

10-Day Weather Forecast

Advertisements
Track Severe Weather on mobile